KOTM/OTM METAR and TAF weather

Enter ICAO airport designator
Station Type Date Time Source
KOTM METAR 2019/07/15 19:53 UTC NOAA

KOTM 151953Z AUTO 17014G24KT 10SM BKN043 30/19 A2997 RMK AO2 SLP139 T03000194


Station Type Date Time Source
KOTM Decoded METAR 2019/07/15 19:53 UTC NOAA

OTTUMWA INDUSTRIAL AIRPORT, IA, United States (KOTM) 41-06N 092-27W 256M
Jul 15, 2019 - 03:53 PM EDT / 2019.07.15 1953 UTC
Wind: from the S (170 degrees) at 16 MPH (14 KT) gusting to 28 MPH (24 KT):0
Visibility: 10 mile(s):0
Sky conditions: mostly cloudy
Temperature: 86.0 F (30.0 C)
Dew Point: 66.9 F (19.4 C)
Relative Humidity: 53%
Pressure (altimeter): 29.97 in. Hg (1014 hPa)
ob: KOTM 151953Z AUTO 17014G24KT 10SM BKN043 30/19 A2997 RMK AO2 SLP139 T03000194
cycle: 20

Station Type Date Time Source
KOTM TAF 2019/07/15 18:34 UTC NOAA

TAF KOTM 151732Z 1518/1618 18011G20KT P6SM SKC
FM160100 16007KT P6SM SCT025 BKN050
FM161700 21012KT P6SM BKN040

Example: see airport list